createdAt,value
2023-01-09T00:08:49.190Z,1.53
2023-01-09T00:13:48.406Z,2.93
2023-01-09T00:18:46.905Z,1.13
2023-01-09T00:23:45.363Z,1.67
2023-01-09T00:28:45.623Z,1.30
2023-01-09T00:33:46.934Z,1.50
2023-01-09T00:38:45.386Z,1.57
2023-01-09T00:44:45.449Z,2.03
2023-01-09T00:49:46.614Z,1.30
2023-01-09T00:54:46.529Z,1.50
2023-01-09T00:59:45.519Z,2.33
2023-01-09T01:05:02.519Z,1.63
2023-01-09T01:10:00.965Z,1.77
2023-01-09T01:14:59.394Z,2.00
2023-01-09T01:19:58.834Z,2.30
2023-01-09T01:24:57.015Z,3.10
2023-01-09T01:29:55.609Z,1.73
2023-01-09T01:34:53.908Z,2.77
2023-01-09T01:39:54.810Z,2.07
2023-01-09T01:45:08.954Z,4.43
2023-01-09T01:50:13.831Z,2.93
2023-01-09T01:55:13.598Z,3.00
2023-01-09T02:00:13.559Z,2.10
2023-01-09T02:05:12.254Z,3.40
2023-01-09T02:10:11.522Z,2.87
2023-01-09T02:15:14.325Z,2.53
2023-01-09T02:20:36.373Z,3.03
2023-01-09T02:26:00.117Z,3.20
2023-01-09T02:31:04.135Z,2.37
2023-01-09T02:36:11.832Z,2.13
2023-01-09T02:48:00.284Z,1.73
2023-01-09T02:53:30.923Z,2.27
2023-01-09T02:58:45.418Z,1.80
2023-01-09T03:03:50.989Z,2.30
2023-01-09T03:08:52.602Z,2.10
2023-01-09T03:13:56.123Z,5.77
2023-01-09T03:18:57.514Z,2.73
2023-01-09T03:23:58.140Z,1.60
2023-01-09T03:28:57.170Z,2.00
2023-01-09T03:33:57.162Z,2.80
2023-01-09T03:38:56.262Z,1.70
2023-01-09T03:43:54.390Z,3.63
2023-01-09T03:48:53.196Z,1.57
2023-01-09T03:53:53.061Z,2.23
2023-01-09T03:58:53.309Z,1.53
2023-01-09T04:03:51.898Z,1.60
2023-01-09T04:08:50.462Z,1.70
2023-01-09T04:13:50.312Z,1.80
2023-01-09T04:18:48.465Z,1.03
2023-01-09T04:23:46.954Z,1.00
2023-01-09T04:28:45.498Z,2.30
2023-01-09T04:33:45.373Z,1.20
2023-01-09T04:38:44.454Z,1.20
2023-01-09T04:43:42.928Z,1.20
2023-01-09T04:48:41.403Z,1.77
2023-01-09T04:53:41.281Z,0.73
2023-01-09T04:58:40.367Z,1.17
2023-01-09T05:03:38.845Z,0.80
2023-01-09T05:08:37.358Z,1.53
2023-01-09T05:13:37.243Z,0.77
2023-01-09T05:18:36.522Z,0.93
2023-01-09T05:23:35.046Z,0.93
2023-01-09T05:35:24.272Z,0.70
2023-01-09T05:40:24.855Z,1.17
2023-01-09T05:45:28.120Z,1.13
2023-01-09T05:50:28.753Z,0.67
2023-01-09T05:55:27.218Z,1.27
2023-01-09T06:00:26.373Z,1.00
2023-01-09T06:11:50.324Z,0.90
2023-01-09T06:16:48.599Z,1.10
2023-01-09T06:21:47.140Z,1.20
2023-01-09T06:27:18.356Z,0.80
2023-01-09T06:32:17.012Z,0.70
2023-01-09T06:37:15.265Z,2.40
2023-01-09T06:42:13.744Z,1.53
2023-01-09T06:47:13.624Z,1.33
2023-01-09T06:52:12.151Z,1.10
2023-01-09T06:57:10.685Z,1.23
2023-01-09T07:02:19.739Z,1.20
2023-01-09T07:07:19.789Z,2.13
2023-01-09T07:12:18.373Z,1.00
2023-01-09T07:17:18.344Z,1.43
2023-01-09T07:22:16.510Z,1.27
2023-01-09T07:27:14.712Z,2.90
2023-01-09T07:38:38.338Z,2.10
2023-01-09T07:43:37.700Z,0.80
2023-01-09T07:48:36.339Z,1.10
2023-01-09T07:53:34.860Z,3.13
2023-01-09T07:59:05.661Z,1.13
2023-01-09T08:04:05.293Z,1.00
2023-01-09T08:09:03.573Z,3.80
2023-01-09T08:14:02.237Z,1.43
2023-01-09T08:19:01.358Z,1.40
2023-01-09T08:24:01.852Z,4.20
2023-01-09T08:29:00.352Z,1.50
2023-01-09T08:33:58.860Z,2.20
2023-01-09T08:38:56.989Z,2.67
2023-01-09T08:44:14.236Z,2.63
2023-01-09T08:49:12.976Z,3.70
2023-01-09T08:54:11.430Z,3.20
2023-01-09T08:59:12.354Z,2.53
2023-01-09T09:04:35.814Z,5.50
2023-01-09T09:09:34.293Z,1.90
2023-01-09T09:14:51.924Z,5.03
2023-01-09T09:19:50.058Z,8.93
2023-01-09T09:24:48.206Z,2.97
2023-01-09T09:29:48.346Z,2.40
2023-01-09T09:34:46.541Z,6.63
2023-01-09T09:39:44.983Z,8.53
2023-01-09T09:44:56.959Z,2.23
2023-01-09T09:50:10.496Z,4.77
2023-01-09T09:55:17.990Z,2.53
2023-01-09T10:00:24.757Z,6.73
2023-01-09T10:05:28.224Z,9.53
2023-01-09T10:10:33.035Z,3.70
2023-01-09T10:15:39.760Z,3.93
2023-01-09T10:20:54.709Z,3.53
2023-01-09T10:25:58.758Z,4.30
2023-01-09T10:31:04.418Z,8.43
2023-01-09T10:36:35.496Z,6.90
2023-01-09T10:41:40.852Z,7.07
2023-01-09T10:46:46.739Z,5.57
2023-01-09T10:51:49.299Z,4.27
2023-01-09T10:56:56.378Z,4.93
2023-01-09T11:08:56.894Z,5.33
2023-01-09T11:14:06.400Z,5.83
2023-01-09T11:19:05.063Z,5.87
2023-01-09T11:24:29.172Z,3.53
2023-01-09T11:29:27.774Z,7.47
2023-01-09T11:34:28.810Z,4.33
2023-01-09T11:39:32.093Z,3.40
2023-01-09T11:44:32.582Z,3.50
2023-01-09T11:49:32.606Z,2.90
2023-01-09T12:01:06.859Z,3.73
2023-01-09T12:06:13.653Z,3.67
2023-01-09T12:11:20.405Z,3.30
2023-01-09T12:16:30.877Z,2.50
2023-01-09T12:21:36.482Z,4.80
2023-01-09T12:26:42.659Z,3.07
2023-01-09T12:31:58.759Z,9.57
2023-01-09T12:37:33.218Z,4.27
2023-01-09T12:42:42.345Z,4.37
2023-01-09T12:47:46.866Z,5.10
2023-01-09T12:52:50.504Z,3.07
2023-01-09T12:57:52.046Z,2.27
2023-01-09T13:03:12.044Z,2.33
2023-01-09T13:08:19.619Z,6.10
2023-01-09T13:13:24.267Z,3.40
2023-01-09T13:18:30.451Z,3.77
2023-01-09T13:23:45.907Z,4.93
2023-01-09T13:28:47.492Z,1.97
2023-01-09T13:33:52.541Z,4.70
2023-01-09T13:38:51.748Z,3.07
2023-01-09T13:43:58.515Z,5.60
2023-01-09T13:48:58.411Z,4.90
2023-01-09T13:53:56.841Z,4.43
2023-01-09T13:59:04.432Z,8.50
2023-01-09T14:04:36.308Z,2.60
2023-01-09T14:09:38.948Z,5.13
2023-01-09T14:14:37.828Z,5.30
2023-01-09T14:19:38.401Z,3.20
2023-01-09T14:24:46.781Z,1.73
2023-01-09T14:29:49.231Z,2.07
2023-01-09T14:34:50.583Z,12.17
2023-01-09T14:39:51.873Z,3.20
2023-01-09T14:44:56.857Z,6.23
2023-01-09T14:49:59.757Z,6.13
2023-01-09T14:55:02.492Z,2.33
2023-01-09T15:00:02.800Z,3.77
2023-01-09T15:05:06.349Z,3.83
2023-01-09T15:10:07.367Z,7.90
2023-01-09T15:15:09.007Z,6.10
2023-01-09T15:20:09.228Z,4.07
2023-01-09T15:25:33.998Z,9.80
2023-01-09T15:30:37.687Z,3.70
2023-01-09T15:35:36.935Z,3.60
2023-01-09T15:40:37.149Z,2.33
2023-01-09T15:45:38.476Z,8.57
2023-01-09T15:50:37.210Z,4.00
2023-01-09T15:55:37.180Z,4.03
2023-01-09T16:00:44.266Z,5.10
2023-01-09T16:05:44.720Z,3.77
2023-01-09T16:10:44.253Z,2.73
2023-01-09T16:15:46.747Z,3.13
2023-01-09T16:20:45.985Z,2.90
2023-01-09T16:25:45.520Z,1.80
2023-01-09T16:30:53.171Z,2.40
2023-01-09T16:35:52.257Z,2.40
2023-01-09T16:41:18.092Z,6.00
2023-01-09T16:46:17.680Z,3.27
2023-01-09T16:51:18.235Z,4.10
2023-01-09T16:56:22.377Z,2.57
2023-01-09T17:01:20.928Z,3.57
2023-01-09T17:06:24.939Z,2.70
2023-01-09T17:11:30.445Z,5.00
2023-01-09T17:16:30.349Z,3.40
2023-01-09T17:21:31.063Z,2.60
2023-01-09T17:26:48.305Z,3.73
2023-01-09T17:31:46.873Z,2.53
2023-01-09T17:36:46.014Z,2.37
2023-01-09T17:41:46.306Z,1.87
2023-01-09T17:46:45.875Z,5.53
2023-01-09T17:51:44.383Z,3.57
2023-01-09T17:56:48.073Z,4.53
2023-01-09T18:01:47.192Z,3.30
2023-01-09T18:06:45.866Z,3.30
2023-01-09T18:11:46.148Z,3.93
2023-01-09T18:16:45.624Z,3.77
2023-01-09T18:21:44.166Z,12.10
2023-01-09T18:26:42.691Z,6.90
2023-01-09T18:31:42.653Z,5.40
2023-01-09T18:36:41.249Z,5.60
2023-01-09T18:41:40.039Z,2.90
2023-01-09T18:46:41.137Z,2.57
2023-01-09T18:51:40.681Z,3.30
2023-01-09T18:56:39.300Z,4.10
2023-01-09T19:01:37.997Z,5.60
2023-01-09T19:06:36.807Z,5.43
2023-01-09T19:11:36.373Z,6.10
2023-01-09T19:16:35.008Z,7.97
2023-01-09T19:21:33.631Z,8.77
2023-01-09T19:26:33.008Z,9.50
2023-01-09T19:31:34.426Z,7.53
2023-01-09T19:36:32.997Z,9.53
2023-01-09T19:41:31.619Z,11.17
2023-01-09T19:46:31.643Z,11.50
2023-01-09T19:51:31.774Z,10.37
2023-01-09T19:56:31.963Z,14.03
2023-01-09T20:01:32.404Z,8.93
2023-01-09T20:06:33.121Z,8.37
2023-01-09T20:11:33.121Z,11.83
2023-01-09T20:16:32.132Z,10.33
2023-01-09T20:21:31.912Z,11.20
2023-01-09T20:26:31.576Z,12.90
2023-01-09T20:31:31.796Z,11.80
2023-01-09T20:36:32.168Z,12.77
2023-01-09T20:41:31.746Z,14.00
2023-01-09T20:46:32.379Z,14.00
2023-01-09T20:51:32.611Z,11.00
2023-01-09T20:56:32.479Z,17.27
2023-01-09T21:01:31.032Z,13.30
2023-01-09T21:06:29.786Z,14.60
2023-01-09T21:11:29.996Z,13.40
2023-01-09T21:16:28.671Z,12.30
2023-01-09T21:21:28.655Z,18.80
2023-01-09T21:26:31.392Z,18.50
2023-01-09T21:31:35.153Z,12.60
2023-01-09T21:36:35.877Z,17.00
2023-01-09T21:41:52.943Z,15.03
2023-01-09T21:46:56.252Z,9.90
2023-01-09T21:51:55.806Z,13.17
2023-01-09T21:56:56.517Z,16.50
2023-01-09T22:01:55.016Z,16.83
2023-01-09T22:06:53.711Z,11.47
2023-01-09T22:11:52.211Z,15.57
2023-01-09T22:16:52.099Z,16.50
2023-01-09T22:21:50.328Z,16.47
2023-01-09T22:26:49.742Z,17.80
2023-01-09T22:31:47.935Z,18.60
2023-01-09T22:36:48.339Z,17.17
2023-01-09T22:41:50.849Z,18.47
2023-01-09T22:46:49.032Z,18.07
2023-01-09T22:51:48.879Z,17.50
2023-01-09T22:56:47.377Z,14.50
2023-01-09T23:01:45.905Z,16.53
2023-01-09T23:06:44.876Z,19.80
2023-01-09T23:12:02.271Z,25.47
2023-01-09T23:17:01.100Z,20.60
2023-01-09T23:22:00.457Z,22.43
2023-01-09T23:27:00.688Z,22.97
2023-01-09T23:31:59.327Z,15.03
2023-01-09T23:36:58.153Z,13.80
2023-01-09T23:42:14.103Z,20.80
2023-01-09T23:47:14.040Z,18.67
2023-01-09T23:52:12.536Z,20.83
2023-01-09T23:57:12.093Z,14.80
